sensor_id;sensor_type;location;lat;lon;timestamp;temperature;humidity
30973;DHT22;25423;45.624;13.790;2022-08-30T00:00:19;25.00;99.90
30973;DHT22;25423;45.624;13.790;2022-08-30T00:03:04;25.00;99.90
30973;DHT22;25423;45.624;13.790;2022-08-30T00:05:31;24.80;99.90
30973;DHT22;25423;45.624;13.790;2022-08-30T00:07:57;24.70;99.90
30973;DHT22;25423;45.624;13.790;2022-08-30T00:10:23;25.00;99.90
30973;DHT22;25423;45.624;13.790;2022-08-30T00:12:49;25.00;99.90
30973;DHT22;25423;45.624;13.790;2022-08-30T00:15:15;25.20;99.90
30973;DHT22;25423;45.624;13.790;2022-08-30T00:17:42;25.40;99.90
30973;DHT22;25423;45.624;13.790;2022-08-30T00:20:10;25.30;99.90
30973;DHT22;25423;45.624;13.790;2022-08-30T00:22:36;25.30;99.90
30973;DHT22;25423;45.624;13.790;2022-08-30T00:25:02;25.30;99.90
30973;DHT22;25423;45.624;13.790;2022-08-30T00:27:28;25.30;99.90
30973;DHT22;25423;45.624;13.790;2022-08-30T00:29:54;25.30;99.90
30973;DHT22;25423;45.624;13.790;2022-08-30T00:32:21;25.40;99.90
30973;DHT22;25423;45.624;13.790;2022-08-30T00:34:47;25.30;99.90
30973;DHT22;25423;45.624;13.790;2022-08-30T00:37:13;25.20;99.90
30973;DHT22;25423;45.624;13.790;2022-08-30T00:39:39;25.20;99.90
30973;DHT22;25423;45.624;13.790;2022-08-30T00:42:05;25.20;99.90
30973;DHT22;25423;45.624;13.790;2022-08-30T00:44:31;25.10;99.90
30973;DHT22;25423;45.624;13.790;2022-08-30T00:46:56;25.10;99.90
30973;DHT22;25423;45.624;13.790;2022-08-30T00:49:22;25.10;99.90
30973;DHT22;25423;45.624;13.790;2022-08-30T00:51:49;25.20;99.90
30973;DHT22;25423;45.624;13.790;2022-08-30T00:54:15;25.10;99.90
30973;DHT22;25423;45.624;13.790;2022-08-30T00:56:41;25.20;99.90
30973;DHT22;25423;45.624;13.790;2022-08-30T00:59:07;25.10;99.90
30973;DHT22;25423;45.624;13.790;2022-08-30T01:01:33;25.10;99.90
30973;DHT22;25423;45.624;13.790;2022-08-30T01:04:00;25.10;99.90
30973;DHT22;25423;45.624;13.790;2022-08-30T01:06:26;25.00;99.90
30973;DHT22;25423;45.624;13.790;2022-08-30T01:08:52;24.80;99.90
30973;DHT22;25423;45.624;13.790;2022-08-30T01:11:19;24.50;99.90
30973;DHT22;25423;45.624;13.790;2022-08-30T01:13:45;24.20;99.90
30973;DHT22;25423;45.624;13.790;2022-08-30T01:16:13;24.00;99.90
30973;DHT22;25423;45.624;13.790;2022-08-30T01:18:38;23.80;99.90
30973;DHT22;25423;45.624;13.790;2022-08-30T01:23:32;23.70;99.90
30973;DHT22;25423;45.624;13.790;2022-08-30T01:25:58;23.60;99.90
30973;DHT22;25423;45.624;13.790;2022-08-30T01:28:25;23.60;99.90
30973;DHT22;25423;45.624;13.790;2022-08-30T01:30:51;23.50;99.90
30973;DHT22;25423;45.624;13.790;2022-08-30T01:33:17;23.40;99.90
30973;DHT22;25423;45.624;13.790;2022-08-30T01:35:51;23.50;99.90
30973;DHT22;25423;45.624;13.790;2022-08-30T01:38:18;23.60;99.90
30973;DHT22;25423;45.624;13.790;2022-08-30T01:40:46;23.70;99.90
30973;DHT22;25423;45.624;13.790;2022-08-30T01:43:11;23.80;99.90
30973;DHT22;25423;45.624;13.790;2022-08-30T01:45:38;24.00;99.90
30973;DHT22;25423;45.624;13.790;2022-08-30T01:48:03;24.20;99.90
30973;DHT22;25423;45.624;13.790;2022-08-30T01:50:29;24.30;99.90
30973;DHT22;25423;45.624;13.790;2022-08-30T01:52:55;24.30;99.90
30973;DHT22;25423;45.624;13.790;2022-08-30T01:55:20;24.30;99.90
30973;DHT22;25423;45.624;13.790;2022-08-30T01:57:46;24.30;99.90
30973;DHT22;25423;45.624;13.790;2022-08-30T02:00:14;24.40;99.90
30973;DHT22;25423;45.624;13.790;2022-08-30T02:02:40;24.40;99.90
30973;DHT22;25423;45.624;13.790;2022-08-30T02:05:08;24.40;99.90
30973;DHT22;25423;45.624;13.790;2022-08-30T02:07:34;24.20;99.90
30973;DHT22;25423;45.624;13.790;2022-08-30T02:09:59;24.10;99.90
30973;DHT22;25423;45.624;13.790;2022-08-30T02:12:25;24.10;99.90
30973;DHT22;25423;45.624;13.790;2022-08-30T02:14:50;24.00;99.90
30973;DHT22;25423;45.624;13.790;2022-08-30T02:17:16;24.00;99.90
30973;DHT22;25423;45.624;13.790;2022-08-30T02:19:43;23.90;99.90
30973;DHT22;25423;45.624;13.790;2022-08-30T02:22:09;23.80;99.90
30973;DHT22;25423;45.624;13.790;2022-08-30T02:24:35;23.60;99.90
30973;DHT22;25423;45.624;13.790;2022-08-30T02:27:01;23.50;99.90
30973;DHT22;25423;45.624;13.790;2022-08-30T02:29:27;23.40;99.90
30973;DHT22;25423;45.624;13.790;2022-08-30T02:31:52;23.40;99.90
30973;DHT22;25423;45.624;13.790;2022-08-30T02:34:18;23.40;99.90
30973;DHT22;25423;45.624;13.790;2022-08-30T02:36:44;23.30;99.90
30973;DHT22;25423;45.624;13.790;2022-08-30T02:39:10;23.10;99.90
30973;DHT22;25423;45.624;13.790;2022-08-30T02:41:37;23.00;99.90
30973;DHT22;25423;45.624;13.790;2022-08-30T02:44:03;22.90;99.90
30973;DHT22;25423;45.624;13.790;2022-08-30T02:46:29;23.00;99.90
30973;DHT22;25423;45.624;13.790;2022-08-30T02:48:55;23.10;99.90
30973;DHT22;25423;45.624;13.790;2022-08-30T02:51:20;23.10;99.90
30973;DHT22;25423;45.624;13.790;2022-08-30T02:53:46;23.20;99.90
30973;DHT22;25423;45.624;13.790;2022-08-30T02:56:12;23.40;99.90
30973;DHT22;25423;45.624;13.790;2022-08-30T02:58:38;23.50;99.90
30973;DHT22;25423;45.624;13.790;2022-08-30T03:01:06;23.70;99.90
30973;DHT22;25423;45.624;13.790;2022-08-30T03:03:32;23.70;99.90
30973;DHT22;25423;45.624;13.790;2022-08-30T03:05:58;23.70;99.90
30973;DHT22;25423;45.624;13.790;2022-08-30T03:08:34;23.70;99.90
30973;DHT22;25423;45.624;13.790;2022-08-30T03:11:00;23.70;99.90
30973;DHT22;25423;45.624;13.790;2022-08-30T03:13:27;23.90;99.90
30973;DHT22;25423;45.624;13.790;2022-08-30T03:15:52;24.00;99.90
30973;DHT22;25423;45.624;13.790;2022-08-30T03:18:19;24.10;99.90
30973;DHT22;25423;45.624;13.790;2022-08-30T03:20:45;24.20;99.90
30973;DHT22;25423;45.624;13.790;2022-08-30T03:23:11;24.00;99.90
30973;DHT22;25423;45.624;13.790;2022-08-30T03:25:36;24.00;99.90
30973;DHT22;25423;45.624;13.790;2022-08-30T03:28:04;24.00;99.90
30973;DHT22;25423;45.624;13.790;2022-08-30T03:30:29;24.10;99.90
30973;DHT22;25423;45.624;13.790;2022-08-30T03:32:55;24.00;99.90
30973;DHT22;25423;45.624;13.790;2022-08-30T03:35:21;23.90;99.90
30973;DHT22;25423;45.624;13.790;2022-08-30T03:37:47;23.90;99.90
30973;DHT22;25423;45.624;13.790;2022-08-30T03:40:14;23.90;99.90
30973;DHT22;25423;45.624;13.790;2022-08-30T03:42:41;24.00;99.90
30973;DHT22;25423;45.624;13.790;2022-08-30T03:45:07;24.00;99.90
30973;DHT22;25423;45.624;13.790;2022-08-30T03:47:36;24.00;99.90
30973;DHT22;25423;45.624;13.790;2022-08-30T03:50:02;23.80;99.90
30973;DHT22;25423;45.624;13.790;2022-08-30T03:52:28;23.80;99.90
30973;DHT22;25423;45.624;13.790;2022-08-30T03:54:53;23.80;99.90
30973;DHT22;25423;45.624;13.790;2022-08-30T03:57:19;23.80;99.90
30973;DHT22;25423;45.624;13.790;2022-08-30T03:59:45;23.80;99.90
30973;DHT22;25423;45.624;13.790;2022-08-30T04:02:10;23.80;99.90
30973;DHT22;25423;45.624;13.790;2022-08-30T04:04:36;23.80;99.90
30973;DHT22;25423;45.624;13.790;2022-08-30T04:07:01;23.90;99.90
30973;DHT22;25423;45.624;13.790;2022-08-30T04:09:27;23.90;99.90
30973;DHT22;25423;45.624;13.790;2022-08-30T04:11:53;23.90;99.90
30973;DHT22;25423;45.624;13.790;2022-08-30T04:14:19;23.90;99.90
30973;DHT22;25423;45.624;13.790;2022-08-30T04:16:44;24.00;99.90
30973;DHT22;25423;45.624;13.790;2022-08-30T04:19:10;23.90;99.90
30973;DHT22;25423;45.624;13.790;2022-08-30T04:21:36;23.80;99.90
30973;DHT22;25423;45.624;13.790;2022-08-30T04:24:01;23.90;99.90
30973;DHT22;25423;45.624;13.790;2022-08-30T04:26:27;23.80;99.90
30973;DHT22;25423;45.624;13.790;2022-08-30T04:28:53;23.70;99.90
30973;DHT22;25423;45.624;13.790;2022-08-30T04:31:19;23.80;99.90
30973;DHT22;25423;45.624;13.790;2022-08-30T04:33:45;23.80;99.90
30973;DHT22;25423;45.624;13.790;2022-08-30T04:36:11;23.90;99.90
30973;DHT22;25423;45.624;13.790;2022-08-30T04:38:38;23.90;99.90
30973;DHT22;25423;45.624;13.790;2022-08-30T04:41:11;23.90;99.90
30973;DHT22;25423;45.624;13.790;2022-08-30T04:43:37;23.80;99.90
30973;DHT22;25423;45.624;13.790;2022-08-30T04:46:07;23.90;99.90
30973;DHT22;25423;45.624;13.790;2022-08-30T04:48:33;23.90;99.90
30973;DHT22;25423;45.624;13.790;2022-08-30T04:51:01;23.90;99.90
30973;DHT22;25423;45.624;13.790;2022-08-30T04:53:27;23.90;99.90
30973;DHT22;25423;45.624;13.790;2022-08-30T04:55:52;24.00;99.90
30973;DHT22;25423;45.624;13.790;2022-08-30T04:58:18;24.00;99.90
30973;DHT22;25423;45.624;13.790;2022-08-30T05:00:44;24.00;99.90
30973;DHT22;25423;45.624;13.790;2022-08-30T05:03:09;24.00;99.90
30973;DHT22;25423;45.624;13.790;2022-08-30T05:05:35;24.00;99.90
30973;DHT22;25423;45.624;13.790;2022-08-30T05:08:04;24.00;99.90
30973;DHT22;25423;45.624;13.790;2022-08-30T05:10:30;24.00;99.90
30973;DHT22;25423;45.624;13.790;2022-08-30T05:12:56;24.00;99.90
30973;DHT22;25423;45.624;13.790;2022-08-30T05:15:22;23.90;99.90
30973;DHT22;25423;45.624;13.790;2022-08-30T05:17:48;23.80;99.90
30973;DHT22;25423;45.624;13.790;2022-08-30T05:20:13;23.90;99.90
30973;DHT22;25423;45.624;13.790;2022-08-30T05:22:40;24.00;99.90
30973;DHT22;25423;45.624;13.790;2022-08-30T05:25:06;24.10;99.90
30973;DHT22;25423;45.624;13.790;2022-08-30T05:27:31;24.10;99.90
30973;DHT22;25423;45.624;13.790;2022-08-30T05:29:57;24.20;99.90
30973;DHT22;25423;45.624;13.790;2022-08-30T05:32:23;24.20;99.90
30973;DHT22;25423;45.624;13.790;2022-08-30T05:34:52;24.20;99.90
30973;DHT22;25423;45.624;13.790;2022-08-30T05:37:17;24.20;99.90
30973;DHT22;25423;45.624;13.790;2022-08-30T05:39:43;24.20;99.90
30973;DHT22;25423;45.624;13.790;2022-08-30T05:42:08;24.20;99.90
30973;DHT22;25423;45.624;13.790;2022-08-30T05:44:34;24.20;99.90
30973;DHT22;25423;45.624;13.790;2022-08-30T05:47:00;24.30;99.90
30973;DHT22;25423;45.624;13.790;2022-08-30T05:49:25;24.40;99.90
30973;DHT22;25423;45.624;13.790;2022-08-30T05:51:51;24.50;99.90
30973;DHT22;25423;45.624;13.790;2022-08-30T05:54:16;24.60;99.90
30973;DHT22;25423;45.624;13.790;2022-08-30T05:56:43;24.60;99.90
30973;DHT22;25423;45.624;13.790;2022-08-30T05:59:09;24.60;99.90
30973;DHT22;25423;45.624;13.790;2022-08-30T06:01:36;24.60;99.90
30973;DHT22;25423;45.624;13.790;2022-08-30T06:04:03;24.70;99.90
30973;DHT22;25423;45.624;13.790;2022-08-30T06:06:29;24.70;99.90
30973;DHT22;25423;45.624;13.790;2022-08-30T06:08:55;24.80;99.90
30973;DHT22;25423;45.624;13.790;2022-08-30T06:11:21;24.90;99.90
30973;DHT22;25423;45.624;13.790;2022-08-30T06:13:50;24.90;99.90
30973;DHT22;25423;45.624;13.790;2022-08-30T06:16:17;24.90;99.90
30973;DHT22;25423;45.624;13.790;2022-08-30T06:18:43;25.00;99.90
30973;DHT22;25423;45.624;13.790;2022-08-30T06:21:19;25.00;99.90
30973;DHT22;25423;45.624;13.790;2022-08-30T06:23:45;25.00;99.90
30973;DHT22;25423;45.624;13.790;2022-08-30T06:26:10;25.20;99.90
30973;DHT22;25423;45.624;13.790;2022-08-30T06:28:36;25.30;99.90
30973;DHT22;25423;45.624;13.790;2022-08-30T06:31:08;25.40;99.90
30973;DHT22;25423;45.624;13.790;2022-08-30T06:33:35;25.40;99.90
30973;DHT22;25423;45.624;13.790;2022-08-30T06:36:04;25.50;99.90
30973;DHT22;25423;45.624;13.790;2022-08-30T06:38:30;25.60;99.90
30973;DHT22;25423;45.624;13.790;2022-08-30T06:40:55;25.70;99.90
30973;DHT22;25423;45.624;13.790;2022-08-30T06:43:21;25.70;99.90
30973;DHT22;25423;45.624;13.790;2022-08-30T06:45:46;25.70;99.90
30973;DHT22;25423;45.624;13.790;2022-08-30T06:48:12;25.70;99.90
30973;DHT22;25423;45.624;13.790;2022-08-30T06:50:38;25.80;99.90
30973;DHT22;25423;45.624;13.790;2022-08-30T06:53:06;25.90;99.90
30973;DHT22;25423;45.624;13.790;2022-08-30T06:55:32;25.90;99.90
30973;DHT22;25423;45.624;13.790;2022-08-30T06:58:01;26.00;99.90
30973;DHT22;25423;45.624;13.790;2022-08-30T07:00:27;26.10;99.90
30973;DHT22;25423;45.624;13.790;2022-08-30T07:02:53;26.20;99.90
30973;DHT22;25423;45.624;13.790;2022-08-30T07:05:19;26.30;99.90
30973;DHT22;25423;45.624;13.790;2022-08-30T07:07:48;26.40;99.90
30973;DHT22;25423;45.624;13.790;2022-08-30T07:10:13;26.40;99.90
30973;DHT22;25423;45.624;13.790;2022-08-30T07:12:39;26.50;99.90
30973;DHT22;25423;45.624;13.790;2022-08-30T07:15:05;26.40;99.90
30973;DHT22;25423;45.624;13.790;2022-08-30T07:17:32;26.50;99.90
30973;DHT22;25423;45.624;13.790;2022-08-30T07:20:16;26.50;99.90
30973;DHT22;25423;45.624;13.790;2022-08-30T07:22:42;26.50;99.90
30973;DHT22;25423;45.624;13.790;2022-08-30T07:25:08;26.50;99.90
30973;DHT22;25423;45.624;13.790;2022-08-30T07:27:34;26.60;99.90
30973;DHT22;25423;45.624;13.790;2022-08-30T07:29:59;26.70;99.90
30973;DHT22;25423;45.624;13.790;2022-08-30T07:32:27;26.70;99.90
30973;DHT22;25423;45.624;13.790;2022-08-30T07:34:52;26.70;99.90
30973;DHT22;25423;45.624;13.790;2022-08-30T07:37:18;26.80;99.90
30973;DHT22;25423;45.624;13.790;2022-08-30T07:39:44;26.90;99.90
30973;DHT22;25423;45.624;13.790;2022-08-30T07:42:10;27.10;99.90
30973;DHT22;25423;45.624;13.790;2022-08-30T07:44:35;27.10;99.90
30973;DHT22;25423;45.624;13.790;2022-08-30T07:47:01;27.20;99.90
30973;DHT22;25423;45.624;13.790;2022-08-30T07:49:27;27.30;99.90
30973;DHT22;25423;45.624;13.790;2022-08-30T07:51:52;27.30;99.90
30973;DHT22;25423;45.624;13.790;2022-08-30T07:54:18;27.20;99.90
30973;DHT22;25423;45.624;13.790;2022-08-30T07:56:43;27.30;99.90
30973;DHT22;25423;45.624;13.790;2022-08-30T07:59:09;27.20;99.90
30973;DHT22;25423;45.624;13.790;2022-08-30T08:01:35;27.20;99.90
30973;DHT22;25423;45.624;13.790;2022-08-30T08:04:00;27.20;99.90
30973;DHT22;25423;45.624;13.790;2022-08-30T08:06:26;27.20;99.90
30973;DHT22;25423;45.624;13.790;2022-08-30T08:08:52;27.30;99.90
30973;DHT22;25423;45.624;13.790;2022-08-30T08:11:19;27.30;99.90
30973;DHT22;25423;45.624;13.790;2022-08-30T08:13:46;27.30;99.90
30973;DHT22;25423;45.624;13.790;2022-08-30T08:16:12;27.50;99.90
30973;DHT22;25423;45.624;13.790;2022-08-30T08:18:37;27.70;99.90
30973;DHT22;25423;45.624;13.790;2022-08-30T08:21:03;27.70;99.90
30973;DHT22;25423;45.624;13.790;2022-08-30T08:23:29;27.80;99.90
30973;DHT22;25423;45.624;13.790;2022-08-30T08:25:55;27.90;99.90
30973;DHT22;25423;45.624;13.790;2022-08-30T08:28:21;27.90;99.90
30973;DHT22;25423;45.624;13.790;2022-08-30T08:30:47;27.80;99.90
30973;DHT22;25423;45.624;13.790;2022-08-30T08:33:14;27.90;99.90
30973;DHT22;25423;45.624;13.790;2022-08-30T08:35:40;27.90;99.90
30973;DHT22;25423;45.624;13.790;2022-08-30T08:38:05;28.00;99.90
30973;DHT22;25423;45.624;13.790;2022-08-30T08:40:34;28.20;99.90
30973;DHT22;25423;45.624;13.790;2022-08-30T08:43:12;28.40;99.90
30973;DHT22;25423;45.624;13.790;2022-08-30T08:46:00;28.60;99.90
30973;DHT22;25423;45.624;13.790;2022-08-30T08:48:29;28.70;99.90
30973;DHT22;25423;45.624;13.790;2022-08-30T08:50:55;28.60;99.90
30973;DHT22;25423;45.624;13.790;2022-08-30T08:53:58;28.60;99.90
30973;DHT22;25423;45.624;13.790;2022-08-30T08:56:25;28.60;99.90
30973;DHT22;25423;45.624;13.790;2022-08-30T08:58:52;28.70;99.90
30973;DHT22;25423;45.624;13.790;2022-08-30T09:01:19;28.90;99.90
30973;DHT22;25423;45.624;13.790;2022-08-30T09:03:45;28.90;99.90
30973;DHT22;25423;45.624;13.790;2022-08-30T09:06:37;28.80;99.90
30973;DHT22;25423;45.624;13.790;2022-08-30T09:08:57;28.70;99.90
30973;DHT22;25423;45.624;13.790;2022-08-30T09:11:24;28.80;99.90
30973;DHT22;25423;45.624;13.790;2022-08-30T09:13:51;28.90;99.90
30973;DHT22;25423;45.624;13.790;2022-08-30T09:19:00;29.20;99.90
30973;DHT22;25423;45.624;13.790;2022-08-30T09:21:26;29.30;99.90
30973;DHT22;25423;45.624;13.790;2022-08-30T09:23:57;29.40;99.90
30973;DHT22;25423;45.624;13.790;2022-08-30T09:26:31;29.50;99.90
30973;DHT22;25423;45.624;13.790;2022-08-30T09:28:57;29.60;99.90
30973;DHT22;25423;45.624;13.790;2022-08-30T09:31:31;29.70;99.90
30973;DHT22;25423;45.624;13.790;2022-08-30T09:34:04;29.70;99.90
30973;DHT22;25423;45.624;13.790;2022-08-30T09:36:39;29.70;99.90
30973;DHT22;25423;45.624;13.790;2022-08-30T09:39:06;29.40;99.90
30973;DHT22;25423;45.624;13.790;2022-08-30T09:41:39;29.00;99.90
30973;DHT22;25423;45.624;13.790;2022-08-30T09:46:33;28.30;99.90
30973;DHT22;25423;45.624;13.790;2022-08-30T09:48:58;28.00;99.90
30973;DHT22;25423;45.624;13.790;2022-08-30T10:01:51;27.60;99.90
30973;DHT22;25423;45.624;13.790;2022-08-30T10:12:27;27.60;99.90
30973;DHT22;25423;45.624;13.790;2022-08-30T10:14:58;27.70;99.90
30973;DHT22;25423;45.624;13.790;2022-08-30T10:22:43;27.60;99.90
30973;DHT22;25423;45.624;13.790;2022-08-30T10:27:59;27.70;99.90
30973;DHT22;25423;45.624;13.790;2022-08-30T10:30:28;27.70;99.90
30973;DHT22;25423;45.624;13.790;2022-08-30T10:33:00;27.70;99.90
30973;DHT22;25423;45.624;13.790;2022-08-30T10:35:36;27.90;99.90
30973;DHT22;25423;45.624;13.790;2022-08-30T10:38:12;28.00;99.90
30973;DHT22;25423;45.624;13.790;2022-08-30T10:40:41;27.80;99.90
30973;DHT22;25423;45.624;13.790;2022-08-30T10:43:29;28.00;99.90
30973;DHT22;25423;45.624;13.790;2022-08-30T10:45:59;28.10;99.90
30973;DHT22;25423;45.624;13.790;2022-08-30T10:48:27;28.00;99.90
30973;DHT22;25423;45.624;13.790;2022-08-30T10:50:56;28.00;99.90
30973;DHT22;25423;45.624;13.790;2022-08-30T10:56:08;28.10;99.90
30973;DHT22;25423;45.624;13.790;2022-08-30T10:58:36;28.10;99.90
30973;DHT22;25423;45.624;13.790;2022-08-30T11:06:23;28.40;99.90
30973;DHT22;25423;45.624;13.790;2022-08-30T11:14:40;28.20;99.90
30973;DHT22;25423;45.624;13.790;2022-08-30T11:17:20;27.90;99.90
30973;DHT22;25423;45.624;13.790;2022-08-30T11:19:47;27.70;99.90
30973;DHT22;25423;45.624;13.790;2022-08-30T11:22:14;27.70;99.90
30973;DHT22;25423;45.624;13.790;2022-08-30T11:27:41;27.30;99.90
30973;DHT22;25423;45.624;13.790;2022-08-30T11:35:44;27.30;99.90
30973;DHT22;25423;45.624;13.790;2022-08-30T11:38:15;27.40;99.90
30973;DHT22;25423;45.624;13.790;2022-08-30T11:40:46;27.50;99.90
30973;DHT22;25423;45.624;13.790;2022-08-30T11:48:42;27.50;99.90
30973;DHT22;25423;45.624;13.790;2022-08-30T11:51:18;27.60;99.90
30973;DHT22;25423;45.624;13.790;2022-08-30T11:53:54;27.50;99.90
30973;DHT22;25423;45.624;13.790;2022-08-30T11:56:43;27.50;99.90
30973;DHT22;25423;45.624;13.790;2022-08-30T12:01:42;27.30;99.90
30973;DHT22;25423;45.624;13.790;2022-08-30T12:06:45;27.20;99.90
30973;DHT22;25423;45.624;13.790;2022-08-30T12:11:59;27.50;99.90
30973;DHT22;25423;45.624;13.790;2022-08-30T12:14:39;27.60;99.90
30973;DHT22;25423;45.624;13.790;2022-08-30T12:22:41;27.40;99.90
30973;DHT22;25423;45.624;13.790;2022-08-30T12:25:17;27.50;99.90
30973;DHT22;25423;45.624;13.790;2022-08-30T12:27:43;27.60;99.90
30973;DHT22;25423;45.624;13.790;2022-08-30T12:30:09;27.60;99.90
30973;DHT22;25423;45.624;13.790;2022-08-30T12:32:41;27.70;99.90
30973;DHT22;25423;45.624;13.790;2022-08-30T12:35:15;27.80;99.90
30973;DHT22;25423;45.624;13.790;2022-08-30T12:37:42;27.90;99.90
30973;DHT22;25423;45.624;13.790;2022-08-30T12:42:35;27.90;99.90
30973;DHT22;25423;45.624;13.790;2022-08-30T12:45:03;27.90;99.90
30973;DHT22;25423;45.624;13.790;2022-08-30T12:49:55;27.80;99.90
30973;DHT22;25423;45.624;13.790;2022-08-30T12:54:51;27.70;99.90
30973;DHT22;25423;45.624;13.790;2022-08-30T13:00:03;27.50;99.90
30973;DHT22;25423;45.624;13.790;2022-08-30T13:02:50;27.50;99.90
30973;DHT22;25423;45.624;13.790;2022-08-30T13:10:35;27.50;99.90
30973;DHT22;25423;45.624;13.790;2022-08-30T13:13:02;27.50;99.90
30973;DHT22;25423;45.624;13.790;2022-08-30T13:15:32;27.40;99.90
30973;DHT22;25423;45.624;13.790;2022-08-30T13:20:35;27.40;99.90
30973;DHT22;25423;45.624;13.790;2022-08-30T13:23:03;27.30;99.90
30973;DHT22;25423;45.624;13.790;2022-08-30T13:25:29;27.30;99.90
30973;DHT22;25423;45.624;13.790;2022-08-30T13:27:55;27.20;99.90
30973;DHT22;25423;45.624;13.790;2022-08-30T13:30:21;27.10;99.90
30973;DHT22;25423;45.624;13.790;2022-08-30T13:32:47;27.10;99.90
30973;DHT22;25423;45.624;13.790;2022-08-30T13:35:12;27.10;99.90
30973;DHT22;25423;45.624;13.790;2022-08-30T13:37:39;27.10;99.90
30973;DHT22;25423;45.624;13.790;2022-08-30T13:40:06;27.40;99.90
30973;DHT22;25423;45.624;13.790;2022-08-30T13:42:32;27.50;99.90
30973;DHT22;25423;45.624;13.790;2022-08-30T13:44:57;27.60;99.90
30973;DHT22;25423;45.624;13.790;2022-08-30T13:47:23;27.50;99.90
30973;DHT22;25423;45.624;13.790;2022-08-30T13:49:49;27.50;99.90
30973;DHT22;25423;45.624;13.790;2022-08-30T13:52:16;27.50;99.90
30973;DHT22;25423;45.624;13.790;2022-08-30T13:54:42;27.40;99.90
30973;DHT22;25423;45.624;13.790;2022-08-30T13:57:07;27.40;99.90
30973;DHT22;25423;45.624;13.790;2022-08-30T13:59:33;27.30;99.90
30973;DHT22;25423;45.624;13.790;2022-08-30T14:01:59;27.30;99.90
30973;DHT22;25423;45.624;13.790;2022-08-30T14:04:26;27.40;99.90
30973;DHT22;25423;45.624;13.790;2022-08-30T14:06:52;27.30;99.90
30973;DHT22;25423;45.624;13.790;2022-08-30T14:09:17;27.50;99.90
30973;DHT22;25423;45.624;13.790;2022-08-30T14:11:43;27.50;99.90
30973;DHT22;25423;45.624;13.790;2022-08-30T14:14:09;27.60;99.90
30973;DHT22;25423;45.624;13.790;2022-08-30T14:16:36;27.50;99.90
30973;DHT22;25423;45.624;13.790;2022-08-30T14:19:02;27.40;99.90
30973;DHT22;25423;45.624;13.790;2022-08-30T14:21:28;27.40;99.90
30973;DHT22;25423;45.624;13.790;2022-08-30T14:23:54;27.30;99.90
30973;DHT22;25423;45.624;13.790;2022-08-30T14:26:22;27.40;99.90
30973;DHT22;25423;45.624;13.790;2022-08-30T14:28:47;27.40;99.90
30973;DHT22;25423;45.624;13.790;2022-08-30T14:31:14;27.30;99.90
30973;DHT22;25423;45.624;13.790;2022-08-30T14:33:40;27.40;99.90
30973;DHT22;25423;45.624;13.790;2022-08-30T14:36:06;27.40;99.90
30973;DHT22;25423;45.624;13.790;2022-08-30T14:38:32;27.40;99.90
30973;DHT22;25423;45.624;13.790;2022-08-30T14:40:57;27.40;99.90
30973;DHT22;25423;45.624;13.790;2022-08-30T14:43:23;27.40;99.90
30973;DHT22;25423;45.624;13.790;2022-08-30T14:45:48;27.50;99.90
30973;DHT22;25423;45.624;13.790;2022-08-30T14:48:14;27.60;99.90
30973;DHT22;25423;45.624;13.790;2022-08-30T14:50:39;27.70;99.90
30973;DHT22;25423;45.624;13.790;2022-08-30T14:53:05;27.90;99.90
30973;DHT22;25423;45.624;13.790;2022-08-30T14:55:31;28.00;99.90
30973;DHT22;25423;45.624;13.790;2022-08-30T14:57:58;28.10;99.90
30973;DHT22;25423;45.624;13.790;2022-08-30T15:00:24;27.90;99.90
30973;DHT22;25423;45.624;13.790;2022-08-30T15:02:49;28.10;99.90
30973;DHT22;25423;45.624;13.790;2022-08-30T15:05:15;28.10;99.90
30973;DHT22;25423;45.624;13.790;2022-08-30T15:07:41;28.10;99.90
30973;DHT22;25423;45.624;13.790;2022-08-30T15:10:07;28.20;99.90
30973;DHT22;25423;45.624;13.790;2022-08-30T15:12:33;28.10;99.90
30973;DHT22;25423;45.624;13.790;2022-08-30T15:14:58;28.00;99.90
30973;DHT22;25423;45.624;13.790;2022-08-30T15:17:24;28.00;99.90
30973;DHT22;25423;45.624;13.790;2022-08-30T15:19:50;28.00;99.90
30973;DHT22;25423;45.624;13.790;2022-08-30T15:22:16;27.80;99.90
30973;DHT22;25423;45.624;13.790;2022-08-30T15:24:41;27.60;99.90
30973;DHT22;25423;45.624;13.790;2022-08-30T15:27:07;27.50;99.90
30973;DHT22;25423;45.624;13.790;2022-08-30T15:29:33;27.30;99.90
30973;DHT22;25423;45.624;13.790;2022-08-30T15:31:59;27.30;99.90
30973;DHT22;25423;45.624;13.790;2022-08-30T15:34:25;27.40;99.90
30973;DHT22;25423;45.624;13.790;2022-08-30T15:36:51;27.40;99.90
30973;DHT22;25423;45.624;13.790;2022-08-30T15:39:17;27.50;99.90
30973;DHT22;25423;45.624;13.790;2022-08-30T15:41:43;27.50;99.90
30973;DHT22;25423;45.624;13.790;2022-08-30T15:44:09;27.60;99.90
30973;DHT22;25423;45.624;13.790;2022-08-30T15:46:36;27.70;99.90
30973;DHT22;25423;45.624;13.790;2022-08-30T15:51:37;27.80;99.90
30973;DHT22;25423;45.624;13.790;2022-08-30T15:54:03;27.60;99.90
30973;DHT22;25423;45.624;13.790;2022-08-30T15:56:29;27.60;99.90
30973;DHT22;25423;45.624;13.790;2022-08-30T15:58:55;27.50;99.90
30973;DHT22;25423;45.624;13.790;2022-08-30T16:01:21;27.50;99.90
30973;DHT22;25423;45.624;13.790;2022-08-30T16:03:47;27.40;99.90
30973;DHT22;25423;45.624;13.790;2022-08-30T16:08:38;27.30;99.90
30973;DHT22;25423;45.624;13.790;2022-08-30T16:11:05;27.20;99.90
30973;DHT22;25423;45.624;13.790;2022-08-30T16:13:30;27.20;99.90
30973;DHT22;25423;45.624;13.790;2022-08-30T16:15:58;27.30;99.90
30973;DHT22;25423;45.624;13.790;2022-08-30T16:18:24;27.40;99.90
30973;DHT22;25423;45.624;13.790;2022-08-30T16:20:50;27.60;99.90
30973;DHT22;25423;45.624;13.790;2022-08-30T16:23:25;27.70;99.90
30973;DHT22;25423;45.624;13.790;2022-08-30T16:25:50;27.80;99.90
30973;DHT22;25423;45.624;13.790;2022-08-30T16:28:17;27.90;99.90
30973;DHT22;25423;45.624;13.790;2022-08-30T16:30:43;27.90;99.90
30973;DHT22;25423;45.624;13.790;2022-08-30T16:33:09;27.90;99.90
30973;DHT22;25423;45.624;13.790;2022-08-30T16:35:34;28.00;99.90
30973;DHT22;25423;45.624;13.790;2022-08-30T16:38:00;28.00;99.90
30973;DHT22;25423;45.624;13.790;2022-08-30T16:40:25;28.10;99.90
30973;DHT22;25423;45.624;13.790;2022-08-30T16:42:51;28.20;99.90
30973;DHT22;25423;45.624;13.790;2022-08-30T16:45:16;28.00;99.90
30973;DHT22;25423;45.624;13.790;2022-08-30T16:47:42;27.90;99.90
30973;DHT22;25423;45.624;13.790;2022-08-30T16:50:08;27.80;99.90
30973;DHT22;25423;45.624;13.790;2022-08-30T16:52:35;27.90;99.90